Pagrindinis puslapis
METAR-TAF:

METAR-TAF

Oro uostai :

Kirkenesas, Norvegija

platuma: 69-44N, ilguma: 029-54E, Aukštis: 9 m

Dabartinis oras

Ataskaita buvo paskelbta 26 minutes, ne 14:50 UTC
Vėjas 6 kt iš Pietų/Pietryčių, svyruoja nuo Rytų/Pietryčių ir Pietų
Temperatūra 7°C
Drėgmė 70%
Slėgis 1019 hPa
Matomumas 10 km arba daugiau
Mažai debesys ne aukštis 2000 ft

METAR: ENKR 121450Z 16006KT 120V190 9999 FEW020 07/02 Q1019 RMK WIND 731FT 13009KT

Laikas: 17:16 (15:16 UTC)

Prognozė

Ataskaita buvo paskelbta 1 valandą ir 16 minutes, ne 14:00 UTC
Prognozė galioja nuo 12 metu 15 UTC su 12 metu 24 UTC
Vėjas 8 kt iš Pietryčių
Matomumas 10 km arba daugiau
Su prošvaistėmis ne aukštis 2000 ft
Laikinai
nuo 12 metu 15 UTC su 12 metu 24 UTC
Su prošvaistėmis ne aukštis 1000 ft

TAF: ENKR 121400Z 1215/1224 14008KT 9999 BKN020 TEMPO 1215/1224 BKN010

Orai ataskaitas ir orų prognozės (METAR, TAF).

turimą stotys yra geltonos ir raudonos taškus žemėlapyje.

Perkelti pele per norėdami pamatyti stoties vardą.

Tada spustelėkite, norėdami matyti oro stebėjimo ir prognozės.

Norėdami pakeisti žemėlapį: spustelėkite ant žalios mygtukų su juodo kryžiaus žemyn,; žalią mygtuką su brūkšneliu, jei norite nutolinti; arba žalių rodyklių gretimoms žemėlapius.


METAR-TAF: